sensor_id;sensor_type;location;lat;lon;timestamp;P1;durP1;ratioP1;P2;durP2;ratioP2
30151;SDS011;16963;26.018;-80.216;2022-08-19T00:02:05;10.30;;;5.13;;
30151;SDS011;16963;26.018;-80.216;2022-08-19T00:04:35;9.32;;;5.72;;
30151;SDS011;16963;26.018;-80.216;2022-08-19T00:07:05;9.70;;;5.18;;
30151;SDS011;16963;26.018;-80.216;2022-08-19T00:12:05;8.68;;;5.00;;
30151;SDS011;16963;26.018;-80.216;2022-08-19T00:16:38;9.80;;;5.28;;
30151;SDS011;16963;26.018;-80.216;2022-08-19T00:19:07;9.25;;;4.85;;
30151;SDS011;16963;26.018;-80.216;2022-08-19T00:21:37;7.88;;;4.55;;
30151;SDS011;16963;26.018;-80.216;2022-08-19T00:24:08;8.60;;;5.15;;
30151;SDS011;16963;26.018;-80.216;2022-08-19T00:26:40;10.20;;;4.82;;
30151;SDS011;16963;26.018;-80.216;2022-08-19T00:29:11;7.40;;;5.25;;
30151;SDS011;16963;26.018;-80.216;2022-08-19T00:31:43;8.95;;;4.70;;
30151;SDS011;16963;26.018;-80.216;2022-08-19T00:34:33;7.80;;;4.65;;
30151;SDS011;16963;26.018;-80.216;2022-08-19T00:37:07;9.48;;;4.93;;
30151;SDS011;16963;26.018;-80.216;2022-08-19T00:39:35;7.78;;;5.07;;
30151;SDS011;16963;26.018;-80.216;2022-08-19T00:42:05;9.17;;;4.67;;
30151;SDS011;16963;26.018;-80.216;2022-08-19T00:44:37;8.60;;;5.18;;
30151;SDS011;16963;26.018;-80.216;2022-08-19T00:47:05;6.82;;;5.30;;
30151;SDS011;16963;26.018;-80.216;2022-08-19T00:49:43;10.48;;;6.03;;
30151;SDS011;16963;26.018;-80.216;2022-08-19T00:52:20;8.90;;;5.05;;
30151;SDS011;16963;26.018;-80.216;2022-08-19T00:55:08;7.30;;;4.90;;
30151;SDS011;16963;26.018;-80.216;2022-08-19T00:57:39;10.52;;;4.63;;
30151;SDS011;16963;26.018;-80.216;2022-08-19T01:00:19;12.40;;;4.45;;
30151;SDS011;16963;26.018;-80.216;2022-08-19T01:02:48;7.20;;;4.80;;
30151;SDS011;16963;26.018;-80.216;2022-08-19T01:05:19;7.65;;;4.70;;
30151;SDS011;16963;26.018;-80.216;2022-08-19T01:07:53;6.72;;;4.90;;
30151;SDS011;16963;26.018;-80.216;2022-08-19T01:10:26;8.52;;;5.20;;
30151;SDS011;16963;26.018;-80.216;2022-08-19T01:13:19;7.53;;;5.00;;
30151;SDS011;16963;26.018;-80.216;2022-08-19T01:16:08;5.47;;;4.38;;
30151;SDS011;16963;26.018;-80.216;2022-08-19T01:18:39;7.57;;;4.30;;
30151;SDS011;16963;26.018;-80.216;2022-08-19T01:21:12;10.77;;;4.75;;
30151;SDS011;16963;26.018;-80.216;2022-08-19T01:23:50;12.32;;;5.05;;
30151;SDS011;16963;26.018;-80.216;2022-08-19T01:26:19;8.45;;;5.10;;
30151;SDS011;16963;26.018;-80.216;2022-08-19T01:28:54;7.80;;;5.00;;
30151;SDS011;16963;26.018;-80.216;2022-08-19T01:31:28;7.55;;;4.88;;
30151;SDS011;16963;26.018;-80.216;2022-08-19T01:33:59;7.15;;;5.22;;
30151;SDS011;16963;26.018;-80.216;2022-08-19T01:37:18;10.95;;;4.65;;
30151;SDS011;16963;26.018;-80.216;2022-08-19T01:39:53;7.18;;;4.55;;
30151;SDS011;16963;26.018;-80.216;2022-08-19T01:42:20;8.45;;;5.07;;
30151;SDS011;16963;26.018;-80.216;2022-08-19T01:44:57;9.88;;;5.03;;
30151;SDS011;16963;26.018;-80.216;2022-08-19T01:47:25;9.18;;;4.50;;
30151;SDS011;16963;26.018;-80.216;2022-08-19T01:49:55;7.72;;;4.35;;
30151;SDS011;16963;26.018;-80.216;2022-08-19T01:52:25;11.32;;;4.95;;
30151;SDS011;16963;26.018;-80.216;2022-08-19T01:54:57;9.55;;;4.90;;
30151;SDS011;16963;26.018;-80.216;2022-08-19T01:59:58;12.57;;;5.43;;
30151;SDS011;16963;26.018;-80.216;2022-08-19T02:02:38;11.70;;;4.30;;
30151;SDS011;16963;26.018;-80.216;2022-08-19T02:05:11;10.82;;;4.38;;
30151;SDS011;16963;26.018;-80.216;2022-08-19T02:07:39;7.97;;;4.85;;
30151;SDS011;16963;26.018;-80.216;2022-08-19T02:10:10;7.05;;;3.60;;
30151;SDS011;16963;26.018;-80.216;2022-08-19T02:12:45;6.70;;;3.88;;
30151;SDS011;16963;26.018;-80.216;2022-08-19T02:15:19;7.55;;;4.72;;
30151;SDS011;16963;26.018;-80.216;2022-08-19T02:17:48;9.00;;;4.50;;
30151;SDS011;16963;26.018;-80.216;2022-08-19T02:22:58;6.70;;;4.07;;
30151;SDS011;16963;26.018;-80.216;2022-08-19T02:25:27;5.82;;;3.70;;
30151;SDS011;16963;26.018;-80.216;2022-08-19T02:27:55;6.97;;;3.70;;
30151;SDS011;16963;26.018;-80.216;2022-08-19T02:30:28;8.88;;;3.90;;
30151;SDS011;16963;26.018;-80.216;2022-08-19T02:32:55;5.00;;;4.00;;
30151;SDS011;16963;26.018;-80.216;2022-08-19T02:35:30;6.57;;;3.47;;
30151;SDS011;16963;26.018;-80.216;2022-08-19T02:37:58;7.75;;;3.90;;
30151;SDS011;16963;26.018;-80.216;2022-08-19T02:41:19;5.07;;;3.38;;
30151;SDS011;16963;26.018;-80.216;2022-08-19T02:44:00;6.25;;;3.63;;
30151;SDS011;16963;26.018;-80.216;2022-08-19T02:46:54;7.97;;;3.72;;
30151;SDS011;16963;26.018;-80.216;2022-08-19T02:49:25;5.33;;;3.43;;
30151;SDS011;16963;26.018;-80.216;2022-08-19T02:52:00;7.18;;;3.67;;
30151;SDS011;16963;26.018;-80.216;2022-08-19T02:54:27;5.53;;;3.55;;
30151;SDS011;16963;26.018;-80.216;2022-08-19T02:56:55;6.10;;;3.50;;
30151;SDS011;16963;26.018;-80.216;2022-08-19T02:59:25;6.43;;;3.20;;
30151;SDS011;16963;26.018;-80.216;2022-08-19T03:01:59;5.70;;;3.50;;
30151;SDS011;16963;26.018;-80.216;2022-08-19T03:06:07;5.85;;;3.30;;
30151;SDS011;16963;26.018;-80.216;2022-08-19T03:08:41;5.00;;;3.60;;
30151;SDS011;16963;26.018;-80.216;2022-08-19T03:11:22;4.57;;;3.50;;
30151;SDS011;16963;26.018;-80.216;2022-08-19T03:13:55;5.38;;;3.67;;
30151;SDS011;16963;26.018;-80.216;2022-08-19T03:16:26;4.88;;;3.05;;
30151;SDS011;16963;26.018;-80.216;2022-08-19T03:18:59;5.20;;;3.50;;
30151;SDS011;16963;26.018;-80.216;2022-08-19T03:21:29;4.88;;;3.72;;
30151;SDS011;16963;26.018;-80.216;2022-08-19T03:24:00;5.72;;;3.50;;
30151;SDS011;16963;26.018;-80.216;2022-08-19T03:26:48;5.72;;;3.20;;
30151;SDS011;16963;26.018;-80.216;2022-08-19T03:32:02;5.93;;;3.67;;
30151;SDS011;16963;26.018;-80.216;2022-08-19T03:34:53;4.85;;;3.47;;
30151;SDS011;16963;26.018;-80.216;2022-08-19T03:37:20;3.83;;;3.42;;
30151;SDS011;16963;26.018;-80.216;2022-08-19T03:39:55;5.32;;;3.75;;
30151;SDS011;16963;26.018;-80.216;2022-08-19T03:42:25;7.05;;;3.90;;
30151;SDS011;16963;26.018;-80.216;2022-08-19T03:45:13;5.82;;;4.53;;
30151;SDS011;16963;26.018;-80.216;2022-08-19T03:47:41;6.40;;;3.60;;
30151;SDS011;16963;26.018;-80.216;2022-08-19T03:50:10;5.32;;;3.35;;
30151;SDS011;16963;26.018;-80.216;2022-08-19T03:52:38;4.30;;;3.90;;
30151;SDS011;16963;26.018;-80.216;2022-08-19T03:55:18;5.72;;;3.80;;
30151;SDS011;16963;26.018;-80.216;2022-08-19T03:57:47;6.60;;;4.10;;
30151;SDS011;16963;26.018;-80.216;2022-08-19T04:00:15;6.32;;;4.30;;
30151;SDS011;16963;26.018;-80.216;2022-08-19T04:02:48;7.47;;;3.88;;
30151;SDS011;16963;26.018;-80.216;2022-08-19T04:05:28;4.50;;;3.38;;
30151;SDS011;16963;26.018;-80.216;2022-08-19T04:07:55;5.50;;;3.50;;
30151;SDS011;16963;26.018;-80.216;2022-08-19T04:10:26;6.32;;;3.60;;
30151;SDS011;16963;26.018;-80.216;2022-08-19T04:12:55;8.38;;;3.95;;
30151;SDS011;16963;26.018;-80.216;2022-08-19T04:15:28;9.52;;;4.30;;
30151;SDS011;16963;26.018;-80.216;2022-08-19T04:17:59;7.35;;;4.78;;
30151;SDS011;16963;26.018;-80.216;2022-08-19T04:20:44;7.75;;;3.90;;
30151;SDS011;16963;26.018;-80.216;2022-08-19T04:23:18;4.20;;;3.42;;
30151;SDS011;16963;26.018;-80.216;2022-08-19T04:25:47;6.97;;;3.83;;
30151;SDS011;16963;26.018;-80.216;2022-08-19T04:28:15;6.30;;;4.38;;
30151;SDS011;16963;26.018;-80.216;2022-08-19T04:30:47;7.47;;;4.00;;
30151;SDS011;16963;26.018;-80.216;2022-08-19T04:33:18;6.90;;;4.50;;
30151;SDS011;16963;26.018;-80.216;2022-08-19T04:35:54;7.95;;;4.50;;
30151;SDS011;16963;26.018;-80.216;2022-08-19T04:41:08;10.55;;;4.25;;
30151;SDS011;16963;26.018;-80.216;2022-08-19T04:43:58;7.72;;;4.35;;
30151;SDS011;16963;26.018;-80.216;2022-08-19T04:46:31;6.72;;;4.38;;
30151;SDS011;16963;26.018;-80.216;2022-08-19T04:49:20;6.50;;;4.35;;
30151;SDS011;16963;26.018;-80.216;2022-08-19T04:51:55;8.73;;;4.30;;
30151;SDS011;16963;26.018;-80.216;2022-08-19T04:54:25;7.30;;;4.72;;
30151;SDS011;16963;26.018;-80.216;2022-08-19T04:57:06;6.10;;;4.32;;
30151;SDS011;16963;26.018;-80.216;2022-08-19T05:00:48;6.57;;;3.90;;
30151;SDS011;16963;26.018;-80.216;2022-08-19T05:03:18;4.88;;;3.90;;
30151;SDS011;16963;26.018;-80.216;2022-08-19T05:05:48;7.57;;;4.28;;
30151;SDS011;16963;26.018;-80.216;2022-08-19T05:08:16;6.68;;;4.20;;
30151;SDS011;16963;26.018;-80.216;2022-08-19T05:10:58;4.72;;;4.20;;
30151;SDS011;16963;26.018;-80.216;2022-08-19T05:13:26;5.20;;;4.15;;
30151;SDS011;16963;26.018;-80.216;2022-08-19T05:15:58;5.68;;;3.92;;
30151;SDS011;16963;26.018;-80.216;2022-08-19T05:18:27;6.35;;;4.47;;
30151;SDS011;16963;26.018;-80.216;2022-08-19T05:23:54;6.78;;;4.10;;
30151;SDS011;16963;26.018;-80.216;2022-08-19T05:26:26;6.15;;;4.28;;
30151;SDS011;16963;26.018;-80.216;2022-08-19T05:28:55;7.65;;;4.13;;
30151;SDS011;16963;26.018;-80.216;2022-08-19T05:31:27;6.25;;;4.15;;
30151;SDS011;16963;26.018;-80.216;2022-08-19T05:33:56;6.82;;;3.83;;
30151;SDS011;16963;26.018;-80.216;2022-08-19T05:36:25;5.68;;;4.43;;
30151;SDS011;16963;26.018;-80.216;2022-08-19T05:38:56;7.05;;;4.20;;
30151;SDS011;16963;26.018;-80.216;2022-08-19T05:41:26;8.40;;;4.50;;
30151;SDS011;16963;26.018;-80.216;2022-08-19T05:44:08;7.38;;;4.15;;
30151;SDS011;16963;26.018;-80.216;2022-08-19T05:46:36;8.02;;;4.75;;
30151;SDS011;16963;26.018;-80.216;2022-08-19T05:49:06;6.53;;;4.18;;
30151;SDS011;16963;26.018;-80.216;2022-08-19T05:51:35;8.82;;;4.57;;
30151;SDS011;16963;26.018;-80.216;2022-08-19T05:54:09;6.55;;;4.00;;
30151;SDS011;16963;26.018;-80.216;2022-08-19T05:56:40;5.25;;;4.38;;
30151;SDS011;16963;26.018;-80.216;2022-08-19T05:59:10;4.95;;;4.30;;
30151;SDS011;16963;26.018;-80.216;2022-08-19T06:01:39;7.03;;;4.90;;
30151;SDS011;16963;26.018;-80.216;2022-08-19T06:04:25;6.82;;;4.82;;
30151;SDS011;16963;26.018;-80.216;2022-08-19T06:09:48;6.38;;;4.32;;
30151;SDS011;16963;26.018;-80.216;2022-08-19T06:12:29;6.43;;;4.75;;
30151;SDS011;16963;26.018;-80.216;2022-08-19T06:15:00;7.25;;;4.18;;
30151;SDS011;16963;26.018;-80.216;2022-08-19T06:17:32;7.05;;;4.40;;
30151;SDS011;16963;26.018;-80.216;2022-08-19T06:20:07;6.45;;;4.63;;
30151;SDS011;16963;26.018;-80.216;2022-08-19T06:22:42;6.53;;;4.50;;
30151;SDS011;16963;26.018;-80.216;2022-08-19T06:25:15;7.15;;;4.47;;
30151;SDS011;16963;26.018;-80.216;2022-08-19T06:27:58;9.60;;;4.50;;
30151;SDS011;16963;26.018;-80.216;2022-08-19T06:30:43;5.22;;;4.32;;
30151;SDS011;16963;26.018;-80.216;2022-08-19T06:33:15;5.85;;;4.65;;
30151;SDS011;16963;26.018;-80.216;2022-08-19T06:35:46;7.28;;;5.07;;
30151;SDS011;16963;26.018;-80.216;2022-08-19T06:38:15;7.57;;;4.30;;
30151;SDS011;16963;26.018;-80.216;2022-08-19T06:40:48;6.13;;;4.65;;
30151;SDS011;16963;26.018;-80.216;2022-08-19T06:43:16;7.53;;;5.13;;
30151;SDS011;16963;26.018;-80.216;2022-08-19T06:45:54;6.75;;;4.65;;
30151;SDS011;16963;26.018;-80.216;2022-08-19T06:50:58;7.80;;;4.65;;
30151;SDS011;16963;26.018;-80.216;2022-08-19T06:53:26;6.35;;;4.50;;
30151;SDS011;16963;26.018;-80.216;2022-08-19T06:56:01;8.32;;;4.78;;
30151;SDS011;16963;26.018;-80.216;2022-08-19T06:58:31;9.15;;;4.88;;
30151;SDS011;16963;26.018;-80.216;2022-08-19T07:00:59;8.25;;;4.68;;
30151;SDS011;16963;26.018;-80.216;2022-08-19T07:03:35;6.90;;;5.13;;
30151;SDS011;16963;26.018;-80.216;2022-08-19T07:06:07;7.00;;;5.10;;
30151;SDS011;16963;26.018;-80.216;2022-08-19T07:08:58;6.10;;;4.78;;
30151;SDS011;16963;26.018;-80.216;2022-08-19T07:14:02;8.27;;;4.75;;
30151;SDS011;16963;26.018;-80.216;2022-08-19T07:16:33;7.78;;;4.97;;
30151;SDS011;16963;26.018;-80.216;2022-08-19T07:19:06;5.25;;;4.75;;
30151;SDS011;16963;26.018;-80.216;2022-08-19T07:21:44;8.47;;;4.80;;
30151;SDS011;16963;26.018;-80.216;2022-08-19T07:24:16;7.45;;;5.00;;
30151;SDS011;16963;26.018;-80.216;2022-08-19T07:27:00;6.97;;;5.05;;
30151;SDS011;16963;26.018;-80.216;2022-08-19T07:29:41;9.00;;;5.43;;
30151;SDS011;16963;26.018;-80.216;2022-08-19T07:36:39;8.40;;;5.70;;
30151;SDS011;16963;26.018;-80.216;2022-08-19T07:39:11;10.18;;;5.80;;
30151;SDS011;16963;26.018;-80.216;2022-08-19T07:41:48;5.95;;;5.32;;
30151;SDS011;16963;26.018;-80.216;2022-08-19T07:44:19;9.30;;;4.85;;
30151;SDS011;16963;26.018;-80.216;2022-08-19T07:46:51;8.77;;;4.72;;
30151;SDS011;16963;26.018;-80.216;2022-08-19T07:49:21;8.82;;;6.05;;
30151;SDS011;16963;26.018;-80.216;2022-08-19T07:52:02;9.23;;;4.80;;
30151;SDS011;16963;26.018;-80.216;2022-08-19T07:54:37;7.93;;;4.85;;
30151;SDS011;16963;26.018;-80.216;2022-08-19T07:57:06;7.65;;;5.10;;
30151;SDS011;16963;26.018;-80.216;2022-08-19T07:59:48;6.95;;;5.10;;
30151;SDS011;16963;26.018;-80.216;2022-08-19T08:02:16;8.23;;;5.45;;
30151;SDS011;16963;26.018;-80.216;2022-08-19T08:04:46;7.65;;;5.30;;
30151;SDS011;16963;26.018;-80.216;2022-08-19T08:07:35;7.50;;;5.10;;
30151;SDS011;16963;26.018;-80.216;2022-08-19T08:12:55;7.68;;;5.18;;
30151;SDS011;16963;26.018;-80.216;2022-08-19T08:15:37;8.35;;;5.35;;
30151;SDS011;16963;26.018;-80.216;2022-08-19T08:18:10;6.78;;;5.30;;
30151;SDS011;16963;26.018;-80.216;2022-08-19T08:20:54;6.57;;;5.03;;
30151;SDS011;16963;26.018;-80.216;2022-08-19T08:25:59;6.35;;;5.00;;
30151;SDS011;16963;26.018;-80.216;2022-08-19T08:28:29;6.07;;;4.95;;
30151;SDS011;16963;26.018;-80.216;2022-08-19T08:30:56;6.65;;;4.90;;
30151;SDS011;16963;26.018;-80.216;2022-08-19T08:33:35;5.80;;;4.53;;
30151;SDS011;16963;26.018;-80.216;2022-08-19T08:36:09;8.00;;;5.78;;
30151;SDS011;16963;26.018;-80.216;2022-08-19T08:38:39;8.27;;;5.28;;
30151;SDS011;16963;26.018;-80.216;2022-08-19T08:41:12;9.65;;;5.07;;
30151;SDS011;16963;26.018;-80.216;2022-08-19T08:43:56;6.72;;;4.80;;
30151;SDS011;16963;26.018;-80.216;2022-08-19T08:48:44;7.85;;;5.75;;
30151;SDS011;16963;26.018;-80.216;2022-08-19T08:51:25;7.82;;;5.13;;
30151;SDS011;16963;26.018;-80.216;2022-08-19T08:54:01;10.00;;;5.07;;
30151;SDS011;16963;26.018;-80.216;2022-08-19T08:56:40;6.82;;;5.28;;
30151;SDS011;16963;26.018;-80.216;2022-08-19T09:01:55;9.73;;;5.38;;
30151;SDS011;16963;26.018;-80.216;2022-08-19T09:04:26;10.48;;;5.78;;
30151;SDS011;16963;26.018;-80.216;2022-08-19T09:13:20;10.55;;;5.20;;
30151;SDS011;16963;26.018;-80.216;2022-08-19T09:16:20;9.60;;;5.50;;
30151;SDS011;16963;26.018;-80.216;2022-08-19T09:18:57;9.05;;;5.18;;
30151;SDS011;16963;26.018;-80.216;2022-08-19T09:21:34;8.77;;;5.70;;
30151;SDS011;16963;26.018;-80.216;2022-08-19T09:24:02;9.48;;;5.32;;
30151;SDS011;16963;26.018;-80.216;2022-08-19T09:26:34;9.27;;;5.20;;
30151;SDS011;16963;26.018;-80.216;2022-08-19T09:29:19;9.80;;;5.45;;
30151;SDS011;16963;26.018;-80.216;2022-08-19T09:31:46;10.27;;;5.32;;
30151;SDS011;16963;26.018;-80.216;2022-08-19T09:34:21;9.37;;;5.80;;
30151;SDS011;16963;26.018;-80.216;2022-08-19T09:36:49;9.38;;;5.65;;
30151;SDS011;16963;26.018;-80.216;2022-08-19T09:39:20;9.00;;;5.20;;
30151;SDS011;16963;26.018;-80.216;2022-08-19T09:41:51;7.85;;;4.70;;
30151;SDS011;16963;26.018;-80.216;2022-08-19T09:44:19;7.55;;;5.60;;
30151;SDS011;16963;26.018;-80.216;2022-08-19T09:46:49;10.45;;;5.75;;
30151;SDS011;16963;26.018;-80.216;2022-08-19T09:49:19;8.90;;;5.57;;
30151;SDS011;16963;26.018;-80.216;2022-08-19T09:51:52;10.18;;;5.43;;
30151;SDS011;16963;26.018;-80.216;2022-08-19T09:56:59;11.30;;;5.82;;
30151;SDS011;16963;26.018;-80.216;2022-08-19T09:59:31;8.23;;;5.15;;
30151;SDS011;16963;26.018;-80.216;2022-08-19T10:02:00;8.15;;;5.28;;
30151;SDS011;16963;26.018;-80.216;2022-08-19T10:04:36;9.88;;;5.40;;
30151;SDS011;16963;26.018;-80.216;2022-08-19T10:07:26;8.50;;;6.00;;
30151;SDS011;16963;26.018;-80.216;2022-08-19T10:10:06;8.35;;;5.18;;
30151;SDS011;16963;26.018;-80.216;2022-08-19T10:12:39;7.35;;;5.30;;
30151;SDS011;16963;26.018;-80.216;2022-08-19T10:15:06;9.70;;;5.95;;
30151;SDS011;16963;26.018;-80.216;2022-08-19T10:20:15;9.93;;;5.50;;
30151;SDS011;16963;26.018;-80.216;2022-08-19T10:22:46;7.22;;;5.20;;
30151;SDS011;16963;26.018;-80.216;2022-08-19T10:25:19;8.98;;;4.90;;
30151;SDS011;16963;26.018;-80.216;2022-08-19T10:27:46;8.38;;;4.90;;
30151;SDS011;16963;26.018;-80.216;2022-08-19T10:30:19;6.85;;;4.82;;
30151;SDS011;16963;26.018;-80.216;2022-08-19T10:32:51;9.27;;;5.22;;
30151;SDS011;16963;26.018;-80.216;2022-08-19T10:35:19;7.78;;;5.72;;
30151;SDS011;16963;26.018;-80.216;2022-08-19T10:37:48;10.60;;;5.95;;
30151;SDS011;16963;26.018;-80.216;2022-08-19T10:42:53;8.90;;;5.72;;
30151;SDS011;16963;26.018;-80.216;2022-08-19T10:45:22;9.85;;;5.50;;
30151;SDS011;16963;26.018;-80.216;2022-08-19T10:47:55;8.05;;;5.57;;
30151;SDS011;16963;26.018;-80.216;2022-08-19T10:50:29;8.77;;;5.15;;
30151;SDS011;16963;26.018;-80.216;2022-08-19T10:53:15;8.20;;;6.30;;
30151;SDS011;16963;26.018;-80.216;2022-08-19T10:55:46;7.95;;;5.32;;
30151;SDS011;16963;26.018;-80.216;2022-08-19T10:58:36;9.95;;;6.43;;
30151;SDS011;16963;26.018;-80.216;2022-08-19T11:01:11;6.45;;;5.38;;
30151;SDS011;16963;26.018;-80.216;2022-08-19T11:03:39;10.63;;;5.57;;
30151;SDS011;16963;26.018;-80.216;2022-08-19T11:06:19;10.50;;;5.57;;
30151;SDS011;16963;26.018;-80.216;2022-08-19T11:08:49;8.70;;;5.25;;
30151;SDS011;16963;26.018;-80.216;2022-08-19T11:11:16;8.13;;;5.63;;
30151;SDS011;16963;26.018;-80.216;2022-08-19T11:13:49;16.88;;;6.38;;
30151;SDS011;16963;26.018;-80.216;2022-08-19T11:16:18;8.82;;;5.72;;
30151;SDS011;16963;26.018;-80.216;2022-08-19T11:18:50;12.55;;;6.35;;
30151;SDS011;16963;26.018;-80.216;2022-08-19T11:21:24;9.73;;;6.20;;
30151;SDS011;16963;26.018;-80.216;2022-08-19T11:24:03;12.10;;;6.60;;
30151;SDS011;16963;26.018;-80.216;2022-08-19T11:26:35;9.23;;;6.22;;
30151;SDS011;16963;26.018;-80.216;2022-08-19T11:29:20;9.10;;;6.28;;
30151;SDS011;16963;26.018;-80.216;2022-08-19T11:31:49;11.27;;;6.07;;
30151;SDS011;16963;26.018;-80.216;2022-08-19T11:34:21;10.90;;;5.47;;
30151;SDS011;16963;26.018;-80.216;2022-08-19T11:36:55;8.40;;;5.88;;
30151;SDS011;16963;26.018;-80.216;2022-08-19T11:39:27;10.25;;;5.78;;
30151;SDS011;16963;26.018;-80.216;2022-08-19T11:41:59;10.52;;;5.85;;
30151;SDS011;16963;26.018;-80.216;2022-08-19T11:44:29;12.88;;;7.00;;
30151;SDS011;16963;26.018;-80.216;2022-08-19T11:46:57;12.45;;;6.90;;
30151;SDS011;16963;26.018;-80.216;2022-08-19T11:49:41;9.10;;;6.03;;
30151;SDS011;16963;26.018;-80.216;2022-08-19T11:54:49;10.15;;;5.95;;
30151;SDS011;16963;26.018;-80.216;2022-08-19T11:57:17;11.27;;;5.05;;
30151;SDS011;16963;26.018;-80.216;2022-08-19T11:59:50;10.13;;;5.10;;
30151;SDS011;16963;26.018;-80.216;2022-08-19T12:02:19;9.18;;;4.32;;
30151;SDS011;16963;26.018;-80.216;2022-08-19T12:04:49;7.22;;;4.10;;
30151;SDS011;16963;26.018;-80.216;2022-08-19T12:07:17;8.63;;;4.03;;
30151;SDS011;16963;26.018;-80.216;2022-08-19T12:09:47;7.22;;;3.38;;
30151;SDS011;16963;26.018;-80.216;2022-08-19T12:12:16;8.90;;;4.07;;
30151;SDS011;16963;26.018;-80.216;2022-08-19T12:14:59;9.98;;;4.32;;
30151;SDS011;16963;26.018;-80.216;2022-08-19T12:20:09;6.35;;;3.70;;
30151;SDS011;16963;26.018;-80.216;2022-08-19T12:22:40;11.07;;;3.80;;
30151;SDS011;16963;26.018;-80.216;2022-08-19T12:25:10;9.77;;;3.60;;
30151;SDS011;16963;26.018;-80.216;2022-08-19T12:27:39;9.68;;;3.97;;
30151;SDS011;16963;26.018;-80.216;2022-08-19T12:30:13;6.68;;;3.55;;
30151;SDS011;16963;26.018;-80.216;2022-08-19T12:32:41;10.35;;;4.25;;
30151;SDS011;16963;26.018;-80.216;2022-08-19T12:35:09;10.82;;;3.53;;
30151;SDS011;16963;26.018;-80.216;2022-08-19T12:37:37;10.02;;;3.55;;
30151;SDS011;16963;26.018;-80.216;2022-08-19T12:40:10;7.63;;;3.42;;
30151;SDS011;16963;26.018;-80.216;2022-08-19T12:42:50;9.30;;;3.83;;
30151;SDS011;16963;26.018;-80.216;2022-08-19T12:45:19;5.28;;;2.70;;
30151;SDS011;16963;26.018;-80.216;2022-08-19T12:47:49;7.32;;;3.28;;
30151;SDS011;16963;26.018;-80.216;2022-08-19T12:50:21;7.25;;;3.08;;
30151;SDS011;16963;26.018;-80.216;2022-08-19T12:52:49;7.53;;;3.10;;
30151;SDS011;16963;26.018;-80.216;2022-08-19T12:55:21;6.80;;;2.70;;
30151;SDS011;16963;26.018;-80.216;2022-08-19T12:57:49;6.07;;;2.78;;
30151;SDS011;16963;26.018;-80.216;2022-08-19T13:00:18;6.53;;;2.55;;
30151;SDS011;16963;26.018;-80.216;2022-08-19T13:05:07;5.40;;;2.67;;
30151;SDS011;16963;26.018;-80.216;2022-08-19T13:07:50;8.00;;;2.67;;
30151;SDS011;16963;26.018;-80.216;2022-08-19T13:10:22;4.90;;;2.47;;
30151;SDS011;16963;26.018;-80.216;2022-08-19T13:12:56;6.90;;;2.80;;
30151;SDS011;16963;26.018;-80.216;2022-08-19T13:15:26;5.40;;;3.10;;
30151;SDS011;16963;26.018;-80.216;2022-08-19T13:17:59;8.50;;;3.50;;
30151;SDS011;16963;26.018;-80.216;2022-08-19T13:20:27;9.10;;;3.90;;
30151;SDS011;16963;26.018;-80.216;2022-08-19T13:23:09;7.78;;;3.38;;
30151;SDS011;16963;26.018;-80.216;2022-08-19T13:25:37;7.33;;;4.20;;
30151;SDS011;16963;26.018;-80.216;2022-08-19T13:28:06;8.03;;;4.67;;
30151;SDS011;16963;26.018;-80.216;2022-08-19T13:30:39;8.25;;;4.50;;
30151;SDS011;16963;26.018;-80.216;2022-08-19T13:33:26;5.82;;;4.00;;
30151;SDS011;16963;26.018;-80.216;2022-08-19T13:35:56;7.90;;;5.10;;
30151;SDS011;16963;26.018;-80.216;2022-08-19T13:38:27;7.68;;;4.80;;
30151;SDS011;16963;26.018;-80.216;2022-08-19T13:41:03;7.53;;;4.75;;
30151;SDS011;16963;26.018;-80.216;2022-08-19T13:46:10;7.00;;;5.30;;
30151;SDS011;16963;26.018;-80.216;2022-08-19T13:48:41;6.63;;;5.38;;
30151;SDS011;16963;26.018;-80.216;2022-08-19T13:51:09;7.80;;;5.65;;
30151;SDS011;16963;26.018;-80.216;2022-08-19T13:53:37;7.75;;;5.10;;
30151;SDS011;16963;26.018;-80.216;2022-08-19T13:56:16;8.70;;;5.57;;
30151;SDS011;16963;26.018;-80.216;2022-08-19T13:58:52;8.18;;;5.88;;
30151;SDS011;16963;26.018;-80.216;2022-08-19T14:01:21;8.50;;;5.25;;
30151;SDS011;16963;26.018;-80.216;2022-08-19T14:03:52;9.45;;;6.35;;
30151;SDS011;16963;26.018;-80.216;2022-08-19T14:08:39;6.45;;;5.30;;
30151;SDS011;16963;26.018;-80.216;2022-08-19T14:11:12;8.77;;;5.90;;
30151;SDS011;16963;26.018;-80.216;2022-08-19T14:13:40;9.52;;;5.22;;
30151;SDS011;16963;26.018;-80.216;2022-08-19T14:16:10;8.25;;;5.50;;
30151;SDS011;16963;26.018;-80.216;2022-08-19T14:18:40;9.88;;;5.47;;
30151;SDS011;16963;26.018;-80.216;2022-08-19T14:21:14;7.32;;;4.93;;
30151;SDS011;16963;26.018;-80.216;2022-08-19T14:23:49;6.45;;;5.13;;
30151;SDS011;16963;26.018;-80.216;2022-08-19T14:26:18;7.03;;;4.82;;
30151;SDS011;16963;26.018;-80.216;2022-08-19T14:28:46;6.65;;;5.15;;
30151;SDS011;16963;26.018;-80.216;2022-08-19T14:31:22;8.73;;;5.18;;
30151;SDS011;16963;26.018;-80.216;2022-08-19T14:33:56;6.97;;;4.80;;
30151;SDS011;16963;26.018;-80.216;2022-08-19T14:36:26;9.77;;;5.03;;
30151;SDS011;16963;26.018;-80.216;2022-08-19T14:38:56;6.13;;;4.63;;
30151;SDS011;16963;26.018;-80.216;2022-08-19T14:41:29;10.38;;;4.70;;
30151;SDS011;16963;26.018;-80.216;2022-08-19T14:43:59;7.07;;;4.80;;
30151;SDS011;16963;26.018;-80.216;2022-08-19T14:46:29;6.80;;;4.90;;
30151;SDS011;16963;26.018;-80.216;2022-08-19T14:48:57;7.32;;;4.57;;
30151;SDS011;16963;26.018;-80.216;2022-08-19T14:53:36;9.48;;;5.30;;
30151;SDS011;16963;26.018;-80.216;2022-08-19T14:56:11;5.45;;;4.47;;
30151;SDS011;16963;26.018;-80.216;2022-08-19T14:58:41;7.18;;;4.78;;
30151;SDS011;16963;26.018;-80.216;2022-08-19T15:01:10;7.20;;;4.40;;
30151;SDS011;16963;26.018;-80.216;2022-08-19T15:03:42;11.10;;;5.32;;
30151;SDS011;16963;26.018;-80.216;2022-08-19T15:06:09;8.43;;;4.97;;
30151;SDS011;16963;26.018;-80.216;2022-08-19T15:08:40;6.77;;;5.10;;
30151;SDS011;16963;26.018;-80.216;2022-08-19T15:11:13;6.60;;;4.88;;
30151;SDS011;16963;26.018;-80.216;2022-08-19T15:16:20;6.13;;;4.75;;
30151;SDS011;16963;26.018;-80.216;2022-08-19T15:18:51;7.93;;;5.38;;
30151;SDS011;16963;26.018;-80.216;2022-08-19T15:21:21;9.20;;;5.40;;
30151;SDS011;16963;26.018;-80.216;2022-08-19T15:23:56;8.20;;;5.15;;
30151;SDS011;16963;26.018;-80.216;2022-08-19T15:26:27;7.93;;;5.05;;
30151;SDS011;16963;26.018;-80.216;2022-08-19T15:29:00;7.10;;;4.88;;
30151;SDS011;16963;26.018;-80.216;2022-08-19T15:31:30;6.80;;;5.45;;
30151;SDS011;16963;26.018;-80.216;2022-08-19T15:34:06;5.45;;;4.55;;
30151;SDS011;16963;26.018;-80.216;2022-08-19T15:36:52;6.88;;;5.30;;
30151;SDS011;16963;26.018;-80.216;2022-08-19T15:39:30;8.63;;;5.13;;
30151;SDS011;16963;26.018;-80.216;2022-08-19T15:42:00;7.82;;;5.60;;
30151;SDS011;16963;26.018;-80.216;2022-08-19T15:44:30;7.57;;;5.75;;
30151;SDS011;16963;26.018;-80.216;2022-08-19T15:46:57;8.07;;;5.70;;
30151;SDS011;16963;26.018;-80.216;2022-08-19T15:51:56;12.13;;;5.57;;
30151;SDS011;16963;26.018;-80.216;2022-08-19T15:56:55;6.43;;;5.68;;
30151;SDS011;16963;26.018;-80.216;2022-08-19T15:59:59;7.10;;;5.45;;
30151;SDS011;16963;26.018;-80.216;2022-08-19T16:02:47;6.80;;;4.95;;
30151;SDS011;16963;26.018;-80.216;2022-08-19T16:05:35;8.40;;;4.75;;
30151;SDS011;16963;26.018;-80.216;2022-08-19T16:08:21;7.80;;;5.38;;
30151;SDS011;16963;26.018;-80.216;2022-08-19T16:10:51;6.13;;;5.50;;
30151;SDS011;16963;26.018;-80.216;2022-08-19T16:13:20;7.28;;;4.97;;
30151;SDS011;16963;26.018;-80.216;2022-08-19T16:15:47;7.38;;;5.10;;
30151;SDS011;16963;26.018;-80.216;2022-08-19T16:18:22;5.88;;;4.82;;